createdAt,value
2018-06-10T00:01:13.353Z,67.75
2018-06-10T00:03:41.684Z,67.57
2018-06-10T00:06:10.006Z,67.26
2018-06-10T00:08:38.324Z,66.97
2018-06-10T00:11:06.644Z,67.14
2018-06-10T00:13:35.036Z,67.31
2018-06-10T00:16:03.356Z,67.45
2018-06-10T00:18:31.664Z,67.66
2018-06-10T00:20:59.399Z,67.81
2018-06-10T00:23:28.295Z,67.93
2018-06-10T00:25:56.607Z,67.54
2018-06-10T00:28:24.934Z,67.27
2018-06-10T00:30:53.247Z,67.19
2018-06-10T00:33:21.561Z,67.37
2018-06-10T00:35:49.886Z,67.54
2018-06-10T00:38:18.208Z,67.69
2018-06-10T00:40:46.519Z,67.86
2018-06-10T00:43:14.833Z,68.02
2018-06-10T00:45:43.157Z,68.18
2018-06-10T00:48:11.484Z,68.40
2018-06-10T00:50:39.793Z,68.49
2018-06-10T00:53:08.112Z,68.45
2018-06-10T00:55:36.426Z,68.33
2018-06-10T00:58:04.750Z,68.36
2018-06-10T01:00:33.072Z,68.83
2018-06-10T01:03:01.373Z,69.19
2018-06-10T01:05:29.688Z,69.34
2018-06-10T01:07:58.013Z,69.45
2018-06-10T01:10:25.759Z,69.63
2018-06-10T01:12:54.655Z,69.43
2018-06-10T01:15:22.406Z,68.94
2018-06-10T01:17:51.307Z,68.36
2018-06-10T01:20:19.619Z,67.96
2018-06-10T01:22:47.931Z,67.78
2018-06-10T01:25:16.254Z,67.70
2018-06-10T01:27:44.569Z,67.57
2018-06-10T01:30:12.309Z,67.78
2018-06-10T01:32:41.205Z,67.74
2018-06-10T01:35:09.531Z,67.87
2018-06-10T01:37:37.837Z,67.42
2018-06-10T01:40:06.160Z,67.15
2018-06-10T01:42:34.474Z,67.31
2018-06-10T01:45:02.206Z,67.63
2018-06-10T01:47:31.104Z,67.46
2018-06-10T01:49:58.846Z,67.18
2018-06-10T01:52:27.725Z,66.95
2018-06-10T01:54:56.642Z,66.68
2018-06-10T01:57:24.957Z,66.64
2018-06-10T01:59:53.028Z,66.98
2018-06-10T02:02:21.610Z,67.43
2018-06-10T02:04:49.922Z,67.85
2018-06-10T02:07:18.243Z,67.80
2018-06-10T02:09:46.552Z,67.76
2018-06-10T02:12:14.288Z,67.46
2018-06-10T02:14:43.186Z,67.21
2018-06-10T02:17:11.499Z,67.26
2018-06-10T02:19:39.236Z,67.21
2018-06-10T02:22:08.137Z,67.47
2018-06-10T02:24:36.493Z,67.72
2018-06-10T02:27:04.810Z,68.11
2018-06-10T02:29:33.119Z,68.35
2018-06-10T02:32:01.438Z,68.41
2018-06-10T02:34:29.163Z,68.57
2018-06-10T02:36:57.473Z,68.69
2018-06-10T02:39:26.415Z,68.70
2018-06-10T02:41:54.729Z,68.65
2018-06-10T02:44:23.051Z,68.62
2018-06-10T02:46:51.359Z,68.24
2018-06-10T02:49:19.678Z,67.36
2018-06-10T02:51:47.411Z,66.34
2018-06-10T02:54:16.306Z,65.90
2018-06-10T02:56:44.874Z,65.84
2018-06-10T02:59:12.612Z,65.93
2018-06-10T03:01:41.512Z,66.04
2018-06-10T03:04:09.825Z,66.10
2018-06-10T03:06:38.146Z,66.11
2018-06-10T03:09:06.465Z,66.03
2018-06-10T03:11:34.791Z,65.63
2018-06-10T03:14:03.106Z,64.99
2018-06-10T03:16:31.433Z,64.57
2018-06-10T03:18:59.178Z,64.53
2018-06-10T03:21:28.077Z,64.47
2018-06-10T03:23:56.398Z,64.60
2018-06-10T03:26:24.707Z,64.39
2018-06-10T03:28:53.023Z,64.21
2018-06-10T03:31:21.349Z,64.00
2018-06-10T03:33:49.680Z,63.90
2018-06-10T03:36:17.991Z,63.70
2018-06-10T03:38:45.743Z,63.68
2018-06-10T03:41:14.638Z,63.58
2018-06-10T03:43:42.377Z,63.69
2018-06-10T03:46:11.287Z,63.55
2018-06-10T03:48:39.605Z,63.61
2018-06-10T03:51:07.913Z,63.50
2018-06-10T03:53:35.655Z,63.42
2018-06-10T03:56:04.568Z,63.06
2018-06-10T03:58:32.938Z,62.94
2018-06-10T04:01:00.676Z,62.99
2018-06-10T04:03:29.005Z,63.12
2018-06-10T04:05:57.907Z,63.00
2018-06-10T04:08:26.230Z,62.88
2018-06-10T04:10:54.543Z,62.93
2018-06-10T04:13:22.873Z,63.02
2018-06-10T04:15:50.693Z,62.76
2018-06-10T04:18:18.929Z,62.29
2018-06-10T04:20:47.829Z,61.87
2018-06-10T04:23:16.146Z,61.50
2018-06-10T04:25:44.474Z,61.24
2018-06-10T04:28:12.789Z,61.08
2018-06-10T04:30:41.113Z,60.66
2018-06-10T04:33:08.857Z,60.26
2018-06-10T04:35:37.763Z,60.08
2018-06-10T04:38:06.085Z,59.78
2018-06-10T04:40:34.401Z,59.65
2018-06-10T04:43:02.721Z,59.41
2018-06-10T04:45:31.046Z,59.17
2018-06-10T04:47:59.371Z,58.84
2018-06-10T04:50:27.106Z,58.65
2018-06-10T04:52:56.029Z,58.69
2018-06-10T04:55:23.750Z,58.50
2018-06-10T04:57:52.662Z,58.31
2018-06-10T05:00:20.978Z,58.03
2018-06-10T05:02:49.294Z,57.81
2018-06-10T05:05:17.036Z,57.75
2018-06-10T05:07:45.928Z,57.68
2018-06-10T05:10:14.257Z,57.57
2018-06-10T05:12:42.587Z,57.48
2018-06-10T05:15:11.266Z,57.31
2018-06-10T05:17:39.009Z,57.42
2018-06-10T05:20:08.014Z,57.56
2018-06-10T05:22:35.642Z,57.23
2018-06-10T05:25:03.958Z,56.90
2018-06-10T05:27:32.853Z,57.13
2018-06-10T05:30:01.181Z,56.87
2018-06-10T05:32:29.500Z,56.70
2018-06-10T05:34:57.244Z,56.79
2018-06-10T05:37:25.565Z,57.10
2018-06-10T05:39:53.898Z,56.90
2018-06-10T05:42:22.801Z,57.11
2018-06-10T05:44:50.538Z,56.82
2018-06-10T05:47:18.891Z,56.26
2018-06-10T05:49:47.744Z,55.86
2018-06-10T05:52:16.053Z,56.01
2018-06-10T05:54:44.372Z,55.56
2018-06-10T05:57:12.702Z,55.45
2018-06-10T05:59:41.026Z,55.51
2018-06-10T06:02:09.519Z,55.54
2018-06-10T06:04:37.284Z,55.30
2018-06-10T06:07:05.601Z,55.30
2018-06-10T06:09:34.503Z,55.05
2018-06-10T06:12:02.829Z,55.18
2018-06-10T06:14:31.147Z,55.31
2018-06-10T06:16:59.457Z,54.72
2018-06-10T06:19:27.425Z,54.49
2018-06-10T06:21:56.091Z,54.43
2018-06-10T06:24:23.832Z,53.83
2018-06-10T06:26:52.736Z,53.69
2018-06-10T06:29:21.049Z,53.73
2018-06-10T06:31:49.363Z,52.92
2018-06-10T06:34:17.708Z,52.89
2018-06-10T06:36:46.020Z,53.05
2018-06-10T06:39:14.357Z,53.03
2018-06-10T06:41:42.114Z,53.03
2018-06-10T06:44:10.454Z,52.97
2018-06-10T06:46:39.353Z,52.12
2018-06-10T06:49:07.671Z,51.23
2018-06-10T06:51:35.999Z,50.88
2018-06-10T06:54:04.320Z,51.47
2018-06-10T06:56:32.640Z,51.41
2018-06-10T06:59:00.380Z,51.64
2018-06-10T07:01:29.293Z,51.22
2018-06-10T07:03:57.805Z,51.57
2018-06-10T07:06:26.136Z,51.43
2018-06-10T07:08:54.475Z,50.55
2018-06-10T07:11:22.257Z,50.57
2018-06-10T07:13:51.149Z,50.52
2018-06-10T07:16:19.502Z,50.41
2018-06-10T07:18:47.815Z,50.40
2018-06-10T07:21:15.621Z,49.76
2018-06-10T07:23:43.946Z,49.47
2018-06-10T07:26:12.206Z,49.11
2018-06-10T07:28:41.111Z,49.72
2018-06-10T07:31:09.439Z,49.25
2018-06-10T07:33:37.802Z,48.88
2018-06-10T07:36:05.514Z,48.29
2018-06-10T07:38:33.852Z,48.96
2018-06-10T07:41:02.761Z,48.51
2018-06-10T07:43:31.095Z,48.68
2018-06-10T07:45:59.411Z,49.41
2018-06-10T07:48:27.783Z,49.30
2018-06-10T07:50:55.493Z,49.39
2018-06-10T07:53:24.401Z,49.15
2018-06-10T07:55:53.576Z,49.76
2018-06-10T07:58:21.894Z,49.70
2018-06-10T08:00:50.395Z,49.66
2018-06-10T08:03:18.730Z,49.53
2018-06-10T08:05:47.097Z,50.28
2018-06-10T08:08:16.013Z,50.45
2018-06-10T08:10:44.339Z,50.28
2018-06-10T08:13:12.078Z,50.47
2018-06-10T08:15:44.512Z,50.78
2018-06-10T08:18:14.063Z,50.64
2018-06-10T08:20:41.328Z,51.09
2018-06-10T08:23:09.664Z,50.85
2018-06-10T08:25:38.000Z,50.60
2018-06-10T08:28:06.336Z,50.89
2018-06-10T08:30:34.077Z,50.29
2018-06-10T08:33:02.989Z,50.13
2018-06-10T08:35:30.735Z,50.25
2018-06-10T08:37:59.052Z,50.36
2018-06-10T08:40:27.463Z,50.19
2018-06-10T08:42:56.290Z,50.10
2018-06-10T08:45:24.626Z,50.21
2018-06-10T08:47:52.939Z,49.98
2018-06-10T08:50:21.270Z,49.90
2018-06-10T08:52:49.608Z,50.42
2018-06-10T08:55:17.947Z,50.09
2018-06-10T08:57:45.686Z,49.93
2018-06-10T09:00:14.619Z,49.85
2018-06-10T09:02:42.431Z,49.32
2018-06-10T09:05:11.281Z,49.12
2018-06-10T09:07:39.659Z,49.20
2018-06-10T09:10:07.987Z,49.35
2018-06-10T09:12:36.336Z,48.90
2018-06-10T09:15:04.715Z,48.97
2018-06-10T09:17:36.598Z,48.87
2018-06-10T09:20:04.968Z,48.53
2018-06-10T09:22:33.291Z,48.21
2018-06-10T09:25:01.621Z,48.15
2018-06-10T09:27:29.957Z,48.00
2018-06-10T09:29:57.701Z,47.22
2018-06-10T09:32:26.606Z,47.14
2018-06-10T09:34:54.406Z,46.96
2018-06-10T09:37:23.256Z,47.78
2018-06-10T09:39:51.636Z,47.92
2018-06-10T09:42:19.380Z,47.42
2018-06-10T09:44:48.281Z,47.86
2018-06-10T09:47:16.601Z,48.35
2018-06-10T09:49:45.167Z,48.30
2018-06-10T09:52:12.678Z,47.87
2018-06-10T09:54:41.650Z,47.77
2018-06-10T09:57:09.986Z,47.06
2018-06-10T09:59:38.287Z,47.33
2018-06-10T10:02:06.608Z,47.02
2018-06-10T10:04:34.924Z,46.81
2018-06-10T10:07:03.255Z,46.68
2018-06-10T10:09:31.052Z,46.33
2018-06-10T10:12:00.012Z,45.71
2018-06-10T10:14:28.366Z,45.59
2018-06-10T10:16:56.685Z,45.53
2018-06-10T10:19:24.415Z,45.34
2018-06-10T10:21:53.328Z,45.02
2018-06-10T10:24:21.713Z,44.95
2018-06-10T10:26:49.450Z,45.20
2018-06-10T10:29:17.821Z,45.02
2018-06-10T10:31:46.764Z,44.74
2018-06-10T10:34:15.046Z,44.54
2018-06-10T10:36:43.478Z,43.82
2018-06-10T10:39:11.801Z,44.25
2018-06-10T10:41:41.189Z,43.57
2018-06-10T10:44:08.531Z,43.83
2018-06-10T10:46:36.861Z,43.81
2018-06-10T10:49:12.519Z,43.16
2018-06-10T10:51:40.869Z,43.07
2018-06-10T10:54:09.178Z,42.46
2018-06-10T10:56:37.509Z,42.57
2018-06-10T10:59:05.272Z,42.34
2018-06-10T11:01:34.193Z,41.74
2018-06-10T11:04:02.552Z,41.98
2018-06-10T11:06:30.298Z,42.01
2018-06-10T11:08:59.223Z,41.29
2018-06-10T11:11:27.592Z,40.66
2018-06-10T11:13:55.917Z,39.99
2018-06-10T11:16:24.265Z,39.31
2018-06-10T11:18:52.592Z,39.11
2018-06-10T11:21:20.917Z,38.91
2018-06-10T11:23:49.242Z,39.22
2018-06-10T11:26:17.582Z,39.34
2018-06-10T11:28:45.897Z,39.07
2018-06-10T11:31:14.240Z,39.03
2018-06-10T11:33:42.557Z,39.04
2018-06-10T11:36:10.305Z,38.23
2018-06-10T11:38:38.658Z,37.69
2018-06-10T11:41:06.992Z,38.60
2018-06-10T11:43:35.401Z,38.13
2018-06-10T11:46:05.907Z,37.66
2018-06-10T11:48:34.269Z,36.74
2018-06-10T11:51:03.229Z,36.56
2018-06-10T11:53:31.629Z,36.37
2018-06-10T11:56:02.861Z,36.06
2018-06-10T11:58:29.306Z,35.62
2018-06-10T12:00:57.780Z,36.11
2018-06-10T12:03:26.097Z,35.91
2018-06-10T12:05:54.661Z,35.49
2018-06-10T12:08:22.750Z,35.33
2018-06-10T12:10:51.102Z,35.72
2018-06-10T12:13:19.472Z,35.10
2018-06-10T12:15:47.794Z,35.20
2018-06-10T12:18:16.117Z,35.18
2018-06-10T12:20:44.437Z,34.81
2018-06-10T12:23:12.791Z,34.43
2018-06-10T12:25:40.722Z,34.30
2018-06-10T12:28:09.627Z,33.90
2018-06-10T12:30:38.094Z,33.59
2018-06-10T12:33:06.440Z,33.37
2018-06-10T12:35:34.762Z,33.01
2018-06-10T12:38:03.092Z,32.53
2018-06-10T12:40:30.831Z,32.30
2018-06-10T12:42:59.741Z,32.02
2018-06-10T12:45:28.061Z,32.26
2018-06-10T12:47:55.809Z,31.62
2018-06-10T12:50:24.149Z,31.48
2018-06-10T12:52:53.071Z,31.33
2018-06-10T12:55:21.397Z,31.28
2018-06-10T12:57:49.166Z,31.10
2018-06-10T13:00:17.484Z,30.78
2018-06-10T13:02:46.429Z,30.66
2018-06-10T13:05:14.748Z,30.48
2018-06-10T13:07:43.070Z,30.54
2018-06-10T13:10:12.062Z,30.22
2018-06-10T13:12:40.276Z,29.35
2018-06-10T13:15:08.746Z,29.68
2018-06-10T13:17:37.649Z,29.46
2018-06-10T13:20:05.981Z,29.61
2018-06-10T13:22:33.728Z,29.46
2018-06-10T13:25:02.634Z,28.87
2018-06-10T13:27:30.989Z,28.83
2018-06-10T13:29:58.763Z,28.25
2018-06-10T13:32:28.276Z,28.51
2018-06-10T13:34:55.420Z,27.95
2018-06-10T13:37:24.321Z,27.93
2018-06-10T13:39:52.660Z,28.10
2018-06-10T13:42:20.980Z,28.16
2018-06-10T13:44:48.773Z,27.87
2018-06-10T13:47:17.630Z,28.15
2018-06-10T13:49:45.949Z,27.98
2018-06-10T13:52:14.283Z,28.27
2018-06-10T13:54:42.609Z,27.85
2018-06-10T13:57:10.937Z,27.85
2018-06-10T13:59:38.691Z,27.68
2018-06-10T14:02:07.838Z,27.41
2018-06-10T14:04:35.929Z,27.11
2018-06-10T14:07:04.250Z,27.00
2018-06-10T14:09:32.578Z,27.04
2018-06-10T14:12:00.938Z,26.48
2018-06-10T14:14:28.685Z,25.87
2018-06-10T14:16:57.633Z,25.96
2018-06-10T14:19:25.957Z,25.77
2018-06-10T14:21:54.283Z,25.76
2018-06-10T14:24:22.610Z,25.69
2018-06-10T14:26:50.970Z,24.96
2018-06-10T14:29:19.266Z,25.48
2018-06-10T14:31:47.598Z,25.36
2018-06-10T14:34:16.701Z,25.31
2018-06-10T14:36:45.270Z,24.91
2018-06-10T14:39:13.600Z,25.45
2018-06-10T14:41:41.342Z,25.20
2018-06-10T14:44:10.490Z,24.99
2018-06-10T14:46:38.988Z,24.93
2018-06-10T14:49:07.337Z,24.92
2018-06-10T14:51:35.662Z,24.86
2018-06-10T14:54:03.984Z,24.84
2018-06-10T14:56:32.317Z,24.50
2018-06-10T14:59:00.637Z,24.26
2018-06-10T15:01:28.373Z,24.21
2018-06-10T15:03:57.289Z,24.21
2018-06-10T15:06:25.182Z,24.36
2018-06-10T15:08:54.093Z,24.19
2018-06-10T15:11:21.873Z,23.87
2018-06-10T15:13:50.741Z,23.82
2018-06-10T15:16:18.509Z,24.00
2018-06-10T15:18:47.469Z,24.31
2018-06-10T15:21:15.782Z,24.61
2018-06-10T15:23:44.107Z,25.29
2018-06-10T15:26:12.440Z,25.09
2018-06-10T15:28:40.176Z,25.09
2018-06-10T15:31:08.507Z,25.24
2018-06-10T15:33:37.405Z,25.60
2018-06-10T15:36:05.153Z,25.62
2018-06-10T15:38:34.146Z,25.86
2018-06-10T15:41:02.653Z,26.44
2018-06-10T15:43:31.009Z,26.31
2018-06-10T15:45:59.383Z,26.27
2018-06-10T15:48:27.695Z,26.53
2018-06-10T15:50:56.019Z,26.72
2018-06-10T15:53:23.776Z,26.80
2018-06-10T15:55:54.169Z,27.09
2018-06-10T15:58:22.528Z,27.74
2018-06-10T16:00:50.261Z,28.08
2018-06-10T16:03:19.167Z,28.41
2018-06-10T16:05:47.486Z,28.69
2018-06-10T16:08:15.229Z,28.96
2018-06-10T16:10:44.129Z,29.01
2018-06-10T16:13:12.453Z,29.51
2018-06-10T16:15:40.785Z,29.43
2018-06-10T16:18:09.110Z,29.88
2018-06-10T16:20:37.495Z,30.58
2018-06-10T16:23:05.829Z,30.92
2018-06-10T16:25:34.151Z,31.02
2018-06-10T16:28:02.477Z,31.52
2018-06-10T16:30:30.807Z,32.49
2018-06-10T16:32:59.198Z,33.06
2018-06-10T16:35:27.522Z,33.58
2018-06-10T16:37:55.852Z,33.81
2018-06-10T16:40:24.405Z,33.95
2018-06-10T16:42:53.544Z,34.36
2018-06-10T16:45:21.342Z,34.74
2018-06-10T16:47:50.247Z,35.14
2018-06-10T16:50:17.992Z,35.49
2018-06-10T16:52:46.899Z,35.88
2018-06-10T16:55:15.263Z,36.39
2018-06-10T16:57:43.646Z,37.07
2018-06-10T17:00:12.127Z,37.53
2018-06-10T17:02:40.399Z,38.18
2018-06-10T17:05:08.722Z,38.49
2018-06-10T17:07:37.065Z,39.02
2018-06-10T17:10:04.806Z,39.57
2018-06-10T17:12:34.119Z,40.35
2018-06-10T17:15:02.450Z,40.80
2018-06-10T17:17:30.783Z,41.18
2018-06-10T17:19:58.537Z,41.38
2018-06-10T17:22:27.513Z,41.70
2018-06-10T17:24:55.863Z,42.08
2018-06-10T17:27:24.442Z,42.33
2018-06-10T17:29:52.550Z,42.64
2018-06-10T17:32:20.297Z,42.87
2018-06-10T17:34:49.204Z,43.27
2018-06-10T17:37:17.528Z,43.66
2018-06-10T17:39:45.305Z,43.94
2018-06-10T17:42:14.236Z,44.53
2018-06-10T17:44:42.542Z,45.09
2018-06-10T17:47:10.285Z,45.46
2018-06-10T17:49:39.017Z,45.78
2018-06-10T17:52:07.807Z,45.75
2018-06-10T17:54:36.129Z,45.79
2018-06-10T17:57:04.595Z,45.83
2018-06-10T17:59:32.913Z,46.00
2018-06-10T18:02:00.652Z,46.22
2018-06-10T18:04:29.552Z,46.61
2018-06-10T18:06:57.882Z,46.87
2018-06-10T18:09:26.232Z,47.28
2018-06-10T18:11:54.560Z,47.64
2018-06-10T18:14:22.876Z,47.74
2018-06-10T18:16:51.205Z,48.06
2018-06-10T18:19:19.548Z,48.66
2018-06-10T18:21:47.299Z,49.04
2018-06-10T18:24:16.253Z,49.18
2018-06-10T18:26:44.498Z,49.08
2018-06-10T18:29:12.923Z,49.25
2018-06-10T18:31:41.250Z,49.88
2018-06-10T18:34:09.579Z,49.84
2018-06-10T18:36:37.909Z,49.98
2018-06-10T18:39:06.234Z,49.86
2018-06-10T18:41:34.563Z,49.88
2018-06-10T18:44:02.917Z,50.13
2018-06-10T18:46:31.251Z,50.03
2018-06-10T18:48:59.606Z,50.35
2018-06-10T18:51:27.361Z,50.47
2018-06-10T18:53:55.736Z,50.73
2018-06-10T18:56:24.631Z,50.99
2018-06-10T18:58:52.967Z,51.22
2018-06-10T19:01:20.731Z,51.38
2018-06-10T19:03:49.211Z,51.21
2018-06-10T19:06:18.045Z,51.13
2018-06-10T19:08:46.359Z,51.28
2018-06-10T19:11:14.696Z,51.47
2018-06-10T19:13:43.401Z,51.42
2018-06-10T19:16:11.735Z,51.59
2018-06-10T19:18:40.052Z,52.24
2018-06-10T19:21:08.400Z,52.73
2018-06-10T19:23:36.740Z,52.96
2018-06-10T19:26:08.259Z,53.17
2018-06-10T19:28:34.242Z,53.24
2018-06-10T19:31:02.511Z,53.39
2018-06-10T19:33:30.917Z,53.50
2018-06-10T19:35:59.246Z,54.08
2018-06-10T19:38:27.792Z,54.50
2018-06-10T19:40:56.169Z,55.01
2018-06-10T19:43:24.578Z,54.93
2018-06-10T19:45:52.387Z,55.13
2018-06-10T19:48:20.665Z,55.30
2018-06-10T19:50:50.801Z,55.12
2018-06-10T19:53:19.405Z,55.11
2018-06-10T19:55:47.580Z,55.01
2018-06-10T19:58:15.895Z,54.94
2018-06-10T20:00:43.643Z,55.06
2018-06-10T20:03:12.608Z,55.61
2018-06-10T20:05:40.448Z,56.13
2018-06-10T20:08:09.424Z,56.72
2018-06-10T20:10:37.218Z,57.10
2018-06-10T20:13:06.125Z,57.43
2018-06-10T20:15:34.462Z,57.63
2018-06-10T20:18:02.835Z,57.78
2018-06-10T20:20:30.572Z,57.66
2018-06-10T20:22:58.941Z,57.80
2018-06-10T20:25:27.841Z,58.05
2018-06-10T20:27:56.266Z,58.26
2018-06-10T20:30:24.622Z,58.51
2018-06-10T20:32:52.628Z,58.46
2018-06-10T20:35:20.778Z,58.25
2018-06-10T20:37:49.673Z,58.09
2018-06-10T20:40:17.999Z,58.03
2018-06-10T20:42:46.344Z,58.01
2018-06-10T20:45:14.668Z,58.10
2018-06-10T20:47:42.415Z,58.28
2018-06-10T20:50:12.016Z,58.46
2018-06-10T20:52:40.278Z,58.56
2018-06-10T20:55:08.609Z,58.47
2018-06-10T20:57:36.927Z,58.47
2018-06-10T21:00:05.215Z,58.25
2018-06-10T21:02:33.603Z,58.11
2018-06-10T21:05:01.926Z,57.89
2018-06-10T21:07:30.256Z,57.72
2018-06-10T21:09:57.996Z,57.47
2018-06-10T21:12:26.892Z,57.34
2018-06-10T21:14:55.305Z,56.78
2018-06-10T21:17:23.665Z,56.66
2018-06-10T21:19:51.997Z,56.60
2018-06-10T21:22:20.314Z,56.35
2018-06-10T21:24:48.641Z,55.93
2018-06-10T21:27:16.993Z,55.98
2018-06-10T21:29:45.337Z,55.99
2018-06-10T21:32:13.669Z,55.97
2018-06-10T21:34:41.996Z,55.97
2018-06-10T21:37:10.310Z,55.89
2018-06-10T21:39:38.642Z,55.84
2018-06-10T21:42:07.045Z,55.61
2018-06-10T21:44:35.374Z,55.92
2018-06-10T21:47:03.114Z,56.57
2018-06-10T21:49:31.431Z,55.98
2018-06-10T21:52:00.969Z,55.62
2018-06-10T21:54:29.290Z,55.33
2018-06-10T21:56:57.601Z,55.51
2018-06-10T21:59:25.342Z,55.77
2018-06-10T22:01:53.673Z,55.31
2018-06-10T22:04:22.104Z,55.82
2018-06-10T22:06:50.478Z,56.80
2018-06-10T22:09:18.794Z,56.33
2018-06-10T22:11:49.542Z,55.97
2018-06-10T22:14:17.280Z,55.95
2018-06-10T22:16:45.609Z,55.67
2018-06-10T22:19:14.508Z,55.06
2018-06-10T22:21:42.837Z,54.88
2018-06-10T22:24:11.156Z,54.90
2018-06-10T22:26:39.499Z,54.96
2018-06-10T22:29:07.274Z,54.68
2018-06-10T22:31:36.206Z,54.58
2018-06-10T22:34:03.973Z,54.33
2018-06-10T22:36:32.870Z,54.28
2018-06-10T22:39:00.630Z,53.97
2018-06-10T22:41:29.015Z,53.83
2018-06-10T22:43:57.876Z,53.61
2018-06-10T22:46:26.198Z,53.56
2018-06-10T22:48:54.574Z,54.27
2018-06-10T22:51:22.317Z,54.90
2018-06-10T22:53:51.228Z,54.61
2018-06-10T22:56:19.550Z,54.84
2018-06-10T22:58:47.293Z,53.38
2018-06-10T23:01:16.212Z,52.64
2018-06-10T23:03:44.515Z,52.06
2018-06-10T23:06:12.835Z,51.89
2018-06-10T23:08:40.578Z,51.02
2018-06-10T23:11:09.653Z,49.96
2018-06-10T23:13:37.398Z,49.30
2018-06-10T23:16:06.562Z,48.67
2018-06-10T23:18:34.874Z,48.45
2018-06-10T23:21:03.548Z,48.12
2018-06-10T23:23:31.857Z,47.89
2018-06-10T23:26:00.170Z,47.50
2018-06-10T23:28:27.917Z,47.44
2018-06-10T23:30:56.815Z,47.31
2018-06-10T23:33:25.185Z,47.09
2018-06-10T23:35:53.493Z,47.42
2018-06-10T23:38:21.809Z,47.62
2018-06-10T23:40:50.121Z,47.70
2018-06-10T23:43:18.446Z,48.07
2018-06-10T23:45:46.750Z,48.61
2018-06-10T23:48:15.061Z,49.17
2018-06-10T23:50:43.373Z,49.92
2018-06-10T23:53:11.690Z,51.27
2018-06-10T23:55:39.433Z,52.17
2018-06-10T23:58:08.324Z,53.38
